sensor_id;sensor_type;location;lat;lon;timestamp;pressure;altitude;pressure_sealevel;temperature;humidity
9523;BME280;63165;43.016;25.784;2023-04-26T00:01:36;99097.78;;;13.07;100.00
9523;BME280;63165;43.016;25.784;2023-04-26T00:04:03;99088.16;;;13.08;100.00
9523;BME280;63165;43.016;25.784;2023-04-26T00:06:33;99065.09;;;12.94;100.00
9523;BME280;63165;43.016;25.784;2023-04-26T00:09:03;99072.53;;;13.05;100.00
9523;BME280;63165;43.016;25.784;2023-04-26T00:11:31;99078.28;;;13.13;100.00
9523;BME280;63165;43.016;25.784;2023-04-26T00:13:58;99066.75;;;12.96;99.82
9523;BME280;63165;43.016;25.784;2023-04-26T00:16:26;99073.13;;;13.11;99.65
9523;BME280;63165;43.016;25.784;2023-04-26T00:18:53;99070.41;;;13.13;100.00
9523;BME280;63165;43.016;25.784;2023-04-26T00:21:21;99067.41;;;13.01;100.00
9523;BME280;63165;43.016;25.784;2023-04-26T00:23:48;99031.63;;;12.78;100.00
9523;BME280;63165;43.016;25.784;2023-04-26T00:26:17;99074.75;;;13.14;100.00
9523;BME280;63165;43.016;25.784;2023-04-26T00:28:44;99068.59;;;13.15;99.67
9523;BME280;63165;43.016;25.784;2023-04-26T00:31:14;99067.72;;;13.14;99.68
9523;BME280;63165;43.016;25.784;2023-04-26T00:33:41;99058.63;;;13.02;99.57
9523;BME280;63165;43.016;25.784;2023-04-26T00:36:08;99066.03;;;13.13;100.00
9523;BME280;63165;43.016;25.784;2023-04-26T00:38:36;99018.84;;;12.71;99.94
9523;BME280;63165;43.016;25.784;2023-04-26T00:41:03;99060.91;;;13.10;100.00
9523;BME280;63165;43.016;25.784;2023-04-26T00:43:32;99063.34;;;13.15;100.00
9523;BME280;63165;43.016;25.784;2023-04-26T00:45:59;99069.56;;;13.12;100.00
9523;BME280;63165;43.016;25.784;2023-04-26T00:48:27;99061.41;;;13.18;100.00
9523;BME280;63165;43.016;25.784;2023-04-26T00:50:54;99060.56;;;13.18;100.00
9523;BME280;63165;43.016;25.784;2023-04-26T00:53:22;99044.31;;;13.10;100.00
9523;BME280;63165;43.016;25.784;2023-04-26T00:55:50;99060.47;;;13.21;100.00
9523;BME280;63165;43.016;25.784;2023-04-26T00:58:17;99044.03;;;13.16;99.95
9523;BME280;63165;43.016;25.784;2023-04-26T01:00:45;99058.63;;;13.23;100.00
9523;BME280;63165;43.016;25.784;2023-04-26T01:03:14;99069.19;;;13.21;100.00
9523;BME280;63165;43.016;25.784;2023-04-26T01:05:43;99058.50;;;13.26;100.00
9523;BME280;63165;43.016;25.784;2023-04-26T01:08:10;99051.00;;;13.17;99.86
9523;BME280;63165;43.016;25.784;2023-04-26T01:10:38;99078.69;;;13.24;99.92
9523;BME280;63165;43.016;25.784;2023-04-26T01:13:06;99033.53;;;13.16;99.39
9523;BME280;63165;43.016;25.784;2023-04-26T01:15:34;99061.84;;;13.30;99.98
9523;BME280;63165;43.016;25.784;2023-04-26T01:18:03;99055.03;;;13.24;99.34
9523;BME280;63165;43.016;25.784;2023-04-26T01:20:30;99033.81;;;13.10;99.30
9523;BME280;63165;43.016;25.784;2023-04-26T01:22:59;99044.75;;;13.19;99.20
9523;BME280;63165;43.016;25.784;2023-04-26T01:25:26;99036.03;;;13.19;99.90
9523;BME280;63165;43.016;25.784;2023-04-26T01:27:53;99042.91;;;13.21;100.00
9523;BME280;63165;43.016;25.784;2023-04-26T01:30:21;99051.63;;;13.22;100.00
9523;BME280;63165;43.016;25.784;2023-04-26T01:32:48;99026.84;;;13.09;100.00
9523;BME280;63165;43.016;25.784;2023-04-26T01:35:15;99040.28;;;13.21;100.00
9523;BME280;63165;43.016;25.784;2023-04-26T01:37:43;99041.06;;;13.24;100.00
9523;BME280;63165;43.016;25.784;2023-04-26T01:40:12;99046.38;;;13.22;100.00
9523;BME280;63165;43.016;25.784;2023-04-26T01:42:40;99042.06;;;13.21;100.00
9523;BME280;63165;43.016;25.784;2023-04-26T01:45:07;99014.88;;;13.01;100.00
9523;BME280;63165;43.016;25.784;2023-04-26T01:47:35;99047.66;;;13.13;100.00
9523;BME280;63165;43.016;25.784;2023-04-26T01:50:02;99031.03;;;13.13;100.00
9523;BME280;63165;43.016;25.784;2023-04-26T01:52:30;99039.00;;;13.11;100.00
9523;BME280;63165;43.016;25.784;2023-04-26T01:54:58;99018.78;;;13.13;100.00
9523;BME280;63165;43.016;25.784;2023-04-26T01:57:26;99004.38;;;13.01;100.00
9523;BME280;63165;43.016;25.784;2023-04-26T01:59:54;99018.03;;;13.10;100.00
9523;BME280;63165;43.016;25.784;2023-04-26T02:02:21;99001.75;;;13.01;100.00
9523;BME280;63165;43.016;25.784;2023-04-26T02:04:48;99007.72;;;13.05;100.00
9523;BME280;63165;43.016;25.784;2023-04-26T02:07:16;99017.00;;;13.14;100.00
9523;BME280;63165;43.016;25.784;2023-04-26T02:09:43;99000.72;;;13.06;100.00
9523;BME280;63165;43.016;25.784;2023-04-26T02:12:11;99004.13;;;13.08;100.00
9523;BME280;63165;43.016;25.784;2023-04-26T02:14:39;98952.16;;;12.75;100.00
9523;BME280;63165;43.016;25.784;2023-04-26T02:17:07;98990.47;;;12.99;100.00
9523;BME280;63165;43.016;25.784;2023-04-26T02:19:35;98991.47;;;12.97;100.00
9523;BME280;63165;43.016;25.784;2023-04-26T02:22:04;98992.91;;;13.04;100.00
9523;BME280;63165;43.016;25.784;2023-04-26T02:24:32;98989.84;;;12.94;100.00
9523;BME280;63165;43.016;25.784;2023-04-26T02:26:59;98984.66;;;12.93;100.00
9523;BME280;63165;43.016;25.784;2023-04-26T02:29:28;98982.09;;;12.91;100.00
9523;BME280;63165;43.016;25.784;2023-04-26T02:31:58;99020.22;;;13.00;100.00
9523;BME280;63165;43.016;25.784;2023-04-26T02:34:25;98993.31;;;12.95;100.00
9523;BME280;63165;43.016;25.784;2023-04-26T02:36:52;98996.66;;;12.98;100.00
9523;BME280;63165;43.016;25.784;2023-04-26T02:39:19;98990.03;;;12.90;100.00
9523;BME280;63165;43.016;25.784;2023-04-26T02:41:47;98991.88;;;12.88;100.00
9523;BME280;63165;43.016;25.784;2023-04-26T02:44:14;98983.09;;;12.89;100.00
9523;BME280;63165;43.016;25.784;2023-04-26T02:46:41;98997.06;;;12.89;100.00
9523;BME280;63165;43.016;25.784;2023-04-26T02:49:10;98990.75;;;12.93;100.00
9523;BME280;63165;43.016;25.784;2023-04-26T02:51:37;98997.91;;;12.90;100.00
9523;BME280;63165;43.016;25.784;2023-04-26T02:54:05;98994.44;;;12.89;100.00
9523;BME280;63165;43.016;25.784;2023-04-26T02:56:33;98991.94;;;12.86;100.00
9523;BME280;63165;43.016;25.784;2023-04-26T02:59:00;99002.31;;;12.89;100.00
9523;BME280;63165;43.016;25.784;2023-04-26T03:01:27;98994.81;;;12.80;100.00
9523;BME280;63165;43.016;25.784;2023-04-26T03:03:55;99003.41;;;12.84;100.00
9523;BME280;63165;43.016;25.784;2023-04-26T03:06:24;99020.06;;;12.82;100.00
9523;BME280;63165;43.016;25.784;2023-04-26T03:08:51;99019.34;;;12.79;100.00
9523;BME280;63165;43.016;25.784;2023-04-26T03:11:18;99012.25;;;12.81;100.00
9523;BME280;63165;43.016;25.784;2023-04-26T03:13:45;99001.13;;;12.76;100.00
9523;BME280;63165;43.016;25.784;2023-04-26T03:16:13;99010.50;;;12.81;100.00
9523;BME280;63165;43.016;25.784;2023-04-26T03:18:40;99004.59;;;12.76;100.00
9523;BME280;63165;43.016;25.784;2023-04-26T03:21:08;99007.28;;;12.75;100.00
9523;BME280;63165;43.016;25.784;2023-04-26T03:23:36;99019.44;;;12.77;100.00
9523;BME280;63165;43.016;25.784;2023-04-26T03:26:04;99027.44;;;12.74;100.00
9523;BME280;63165;43.016;25.784;2023-04-26T03:28:31;99020.53;;;12.72;100.00
9523;BME280;63165;43.016;25.784;2023-04-26T03:30:59;99030.13;;;12.73;100.00
9523;BME280;63165;43.016;25.784;2023-04-26T03:33:27;99029.22;;;12.74;100.00
9523;BME280;63165;43.016;25.784;2023-04-26T03:35:54;99033.41;;;12.78;100.00
9523;BME280;63165;43.016;25.784;2023-04-26T03:38:21;99038.09;;;12.70;100.00
9523;BME280;63165;43.016;25.784;2023-04-26T03:40:51;99038.19;;;12.68;100.00
9523;BME280;63165;43.016;25.784;2023-04-26T03:43:18;99047.97;;;12.65;100.00
9523;BME280;63165;43.016;25.784;2023-04-26T03:45:46;99046.03;;;12.48;100.00
9523;BME280;63165;43.016;25.784;2023-04-26T03:48:14;99067.19;;;12.65;100.00
9523;BME280;63165;43.016;25.784;2023-04-26T03:50:42;99058.47;;;12.65;100.00
9523;BME280;63165;43.016;25.784;2023-04-26T03:53:10;99054.91;;;12.66;100.00
9523;BME280;63165;43.016;25.784;2023-04-26T03:55:37;99052.47;;;12.61;100.00
9523;BME280;63165;43.016;25.784;2023-04-26T03:58:06;99043.41;;;12.48;100.00
9523;BME280;63165;43.016;25.784;2023-04-26T04:00:33;99060.41;;;12.59;100.00
9523;BME280;63165;43.016;25.784;2023-04-26T04:03:01;99055.16;;;12.59;100.00
9523;BME280;63165;43.016;25.784;2023-04-26T04:05:28;99057.16;;;12.53;100.00
9523;BME280;63165;43.016;25.784;2023-04-26T04:07:55;99075.00;;;12.67;100.00
9523;BME280;63165;43.016;25.784;2023-04-26T04:10:23;99068.81;;;12.68;100.00
9523;BME280;63165;43.016;25.784;2023-04-26T04:12:50;99071.44;;;12.68;100.00
9523;BME280;63165;43.016;25.784;2023-04-26T04:15:19;99051.59;;;12.60;100.00
9523;BME280;63165;43.016;25.784;2023-04-26T04:17:47;99065.66;;;12.59;100.00
9523;BME280;63165;43.016;25.784;2023-04-26T04:20:14;99075.72;;;12.70;100.00
9523;BME280;63165;43.016;25.784;2023-04-26T04:22:41;99045.25;;;12.46;100.00
9523;BME280;63165;43.016;25.784;2023-04-26T04:25:09;99021.31;;;12.31;100.00
9523;BME280;63165;43.016;25.784;2023-04-26T04:27:36;99075.09;;;12.63;100.00
9523;BME280;63165;43.016;25.784;2023-04-26T04:30:05;99081.56;;;12.77;100.00
9523;BME280;63165;43.016;25.784;2023-04-26T04:32:35;99094.72;;;12.75;100.00
9523;BME280;63165;43.016;25.784;2023-04-26T04:35:04;99100.53;;;12.84;100.00
9523;BME280;63165;43.016;25.784;2023-04-26T04:37:31;99089.97;;;12.85;100.00
9523;BME280;63165;43.016;25.784;2023-04-26T04:39:59;99086.56;;;12.83;100.00
9523;BME280;63165;43.016;25.784;2023-04-26T04:42:27;99088.09;;;12.89;100.00
9523;BME280;63165;43.016;25.784;2023-04-26T04:44:54;99088.78;;;12.92;100.00
9523;BME280;63165;43.016;25.784;2023-04-26T04:47:24;99092.81;;;13.01;100.00
9523;BME280;63165;43.016;25.784;2023-04-26T04:49:53;99065.03;;;12.95;100.00
9523;BME280;63165;43.016;25.784;2023-04-26T04:52:20;99086.09;;;12.94;100.00
9523;BME280;63165;43.016;25.784;2023-04-26T04:54:47;99107.13;;;13.14;100.00
9523;BME280;63165;43.016;25.784;2023-04-26T04:57:14;99051.78;;;12.78;100.00
9523;BME280;63165;43.016;25.784;2023-04-26T04:59:43;99103.53;;;13.17;100.00
9523;BME280;63165;43.016;25.784;2023-04-26T05:02:10;99117.13;;;13.27;100.00
9523;BME280;63165;43.016;25.784;2023-04-26T05:04:37;99104.69;;;13.32;100.00
9523;BME280;63165;43.016;25.784;2023-04-26T05:07:06;99079.50;;;13.26;100.00
9523;BME280;63165;43.016;25.784;2023-04-26T05:09:34;99094.56;;;13.43;100.00
9523;BME280;63165;43.016;25.784;2023-04-26T05:12:01;99085.78;;;13.63;100.00
9523;BME280;63165;43.016;25.784;2023-04-26T05:14:29;99070.72;;;13.67;100.00
9523;BME280;63165;43.016;25.784;2023-04-26T05:16:56;99089.50;;;13.78;100.00
9523;BME280;63165;43.016;25.784;2023-04-26T05:19:23;99078.31;;;13.93;100.00
9523;BME280;63165;43.016;25.784;2023-04-26T05:21:51;99080.63;;;14.00;100.00
9523;BME280;63165;43.016;25.784;2023-04-26T05:24:20;99049.00;;;14.01;100.00
9523;BME280;63165;43.016;25.784;2023-04-26T05:26:47;99062.22;;;14.18;98.64
9523;BME280;63165;43.016;25.784;2023-04-26T05:29:14;99075.72;;;14.30;97.75
9523;BME280;63165;43.016;25.784;2023-04-26T05:31:41;99067.13;;;14.44;96.83
9523;BME280;63165;43.016;25.784;2023-04-26T05:34:09;99048.50;;;14.48;96.36
9523;BME280;63165;43.016;25.784;2023-04-26T05:36:36;99044.31;;;14.63;96.10
9523;BME280;63165;43.016;25.784;2023-04-26T05:39:03;99077.38;;;14.86;94.59
9523;BME280;63165;43.016;25.784;2023-04-26T05:41:33;99074.22;;;14.97;92.77
9523;BME280;63165;43.016;25.784;2023-04-26T05:44:00;99076.47;;;15.05;91.82
9523;BME280;63165;43.016;25.784;2023-04-26T05:46:28;99045.81;;;15.04;90.40
9523;BME280;63165;43.016;25.784;2023-04-26T05:48:55;99046.88;;;15.17;89.17
9523;BME280;63165;43.016;25.784;2023-04-26T05:51:22;99065.97;;;15.38;88.49
9523;BME280;63165;43.016;25.784;2023-04-26T05:53:50;99061.41;;;15.42;87.84
9523;BME280;63165;43.016;25.784;2023-04-26T05:56:17;99061.69;;;15.53;86.43
9523;BME280;63165;43.016;25.784;2023-04-26T05:58:46;99048.50;;;15.53;86.22
9523;BME280;63165;43.016;25.784;2023-04-26T06:01:13;99068.63;;;15.71;86.95
9523;BME280;63165;43.016;25.784;2023-04-26T06:03:40;99054.22;;;15.79;86.79
9523;BME280;63165;43.016;25.784;2023-04-26T06:06:08;99058.88;;;15.89;86.40
9523;BME280;63165;43.016;25.784;2023-04-26T06:08:35;99054.47;;;15.90;85.08
9523;BME280;63165;43.016;25.784;2023-04-26T06:11:03;99065.97;;;16.05;83.33
9523;BME280;63165;43.016;25.784;2023-04-26T06:13:30;99049.53;;;16.00;81.86
9523;BME280;63165;43.016;25.784;2023-04-26T06:15:59;99047.91;;;15.97;81.02
9523;BME280;63165;43.016;25.784;2023-04-26T06:18:26;99036.28;;;16.01;80.30
9523;BME280;63165;43.016;25.784;2023-04-26T06:20:54;99038.63;;;16.06;80.28
9523;BME280;63165;43.016;25.784;2023-04-26T06:23:21;99052.59;;;16.24;80.40
9523;BME280;63165;43.016;25.784;2023-04-26T06:25:48;99030.13;;;16.17;80.73
9523;BME280;63165;43.016;25.784;2023-04-26T06:28:16;99062.22;;;16.41;80.44
9523;BME280;63165;43.016;25.784;2023-04-26T06:30:43;99051.47;;;16.44;79.70
9523;BME280;63165;43.016;25.784;2023-04-26T06:33:12;99045.78;;;16.52;77.95
9523;BME280;63165;43.016;25.784;2023-04-26T06:35:39;98998.94;;;16.23;77.23
9523;BME280;63165;43.016;25.784;2023-04-26T06:38:07;99030.69;;;16.54;76.87
9523;BME280;63165;43.016;25.784;2023-04-26T06:40:37;99035.09;;;16.53;76.08
9523;BME280;63165;43.016;25.784;2023-04-26T06:43:04;99055.44;;;16.67;75.82
9523;BME280;63165;43.016;25.784;2023-04-26T06:45:31;99045.72;;;16.67;75.27
9523;BME280;63165;43.016;25.784;2023-04-26T06:47:58;99029.97;;;16.66;75.81
9523;BME280;63165;43.016;25.784;2023-04-26T06:50:29;99056.50;;;16.95;74.98
9523;BME280;63165;43.016;25.784;2023-04-26T06:52:56;99055.59;;;17.10;74.20
9523;BME280;63165;43.016;25.784;2023-04-26T06:55:23;99055.63;;;17.24;71.88
9523;BME280;63165;43.016;25.784;2023-04-26T06:57:50;99053.28;;;17.34;70.99
9523;BME280;63165;43.016;25.784;2023-04-26T07:00:18;99052.91;;;17.40;69.36
9523;BME280;63165;43.016;25.784;2023-04-26T07:02:46;99058.28;;;17.53;67.78
9523;BME280;63165;43.016;25.784;2023-04-26T07:05:13;99042.69;;;17.49;65.86
9523;BME280;63165;43.016;25.784;2023-04-26T07:07:42;99051.03;;;17.71;65.31
9523;BME280;63165;43.016;25.784;2023-04-26T07:10:10;99083.06;;;17.81;64.32
9523;BME280;63165;43.016;25.784;2023-04-26T07:12:37;99052.22;;;17.80;62.88
9523;BME280;63165;43.016;25.784;2023-04-26T07:15:05;99058.69;;;17.90;62.15
9523;BME280;63165;43.016;25.784;2023-04-26T07:17:33;99065.09;;;18.00;61.55
9523;BME280;63165;43.016;25.784;2023-04-26T07:20:00;99058.88;;;18.01;60.66
9523;BME280;63165;43.016;25.784;2023-04-26T07:22:28;99036.38;;;18.09;59.34
9523;BME280;63165;43.016;25.784;2023-04-26T07:24:57;99071.03;;;18.46;59.51
9523;BME280;63165;43.016;25.784;2023-04-26T07:27:24;99050.75;;;18.59;58.79
9523;BME280;63165;43.016;25.784;2023-04-26T07:29:53;99057.97;;;18.70;57.54
9523;BME280;63165;43.016;25.784;2023-04-26T07:32:21;99055.41;;;18.83;57.03
9523;BME280;63165;43.016;25.784;2023-04-26T07:34:48;99047.47;;;18.83;55.82
9523;BME280;63165;43.016;25.784;2023-04-26T07:37:15;99055.44;;;18.95;56.51
9523;BME280;63165;43.016;25.784;2023-04-26T07:39:43;99044.66;;;18.98;56.13
9523;BME280;63165;43.016;25.784;2023-04-26T07:42:12;99048.78;;;19.28;55.58
9523;BME280;63165;43.016;25.784;2023-04-26T07:44:39;99059.28;;;19.43;55.81
9523;BME280;63165;43.016;25.784;2023-04-26T07:47:10;99051.13;;;19.46;54.53
9523;BME280;63165;43.016;25.784;2023-04-26T07:49:38;99057.38;;;19.57;54.21
9523;BME280;63165;43.016;25.784;2023-04-26T07:52:07;99053.56;;;19.62;54.06
9523;BME280;63165;43.016;25.784;2023-04-26T07:54:34;99001.56;;;19.20;53.76
9523;BME280;63165;43.016;25.784;2023-04-26T07:57:01;99056.34;;;19.73;53.70
9523;BME280;63165;43.016;25.784;2023-04-26T07:59:30;99062.91;;;19.80;53.90
9523;BME280;63165;43.016;25.784;2023-04-26T08:01:58;99060.59;;;19.88;53.90
9523;BME280;63165;43.016;25.784;2023-04-26T08:04:30;99060.34;;;19.91;54.72
9523;BME280;63165;43.016;25.784;2023-04-26T08:06:58;99060.59;;;20.12;54.67
9523;BME280;63165;43.016;25.784;2023-04-26T08:09:26;99059.88;;;20.10;53.12
9523;BME280;63165;43.016;25.784;2023-04-26T08:11:53;99056.94;;;20.02;52.08
9523;BME280;63165;43.016;25.784;2023-04-26T08:14:20;99068.19;;;19.93;51.60
9523;BME280;63165;43.016;25.784;2023-04-26T08:16:49;99047.94;;;19.66;50.73
9523;BME280;63165;43.016;25.784;2023-04-26T08:19:17;99056.09;;;19.63;50.77
9523;BME280;63165;43.016;25.784;2023-04-26T08:21:44;99060.69;;;19.74;50.26
9523;BME280;63165;43.016;25.784;2023-04-26T08:24:11;99052.28;;;19.67;49.35
9523;BME280;63165;43.016;25.784;2023-04-26T08:26:39;99053.78;;;19.71;49.01
9523;BME280;63165;43.016;25.784;2023-04-26T08:29:06;99036.50;;;19.66;49.08
9523;BME280;63165;43.016;25.784;2023-04-26T08:31:33;99057.16;;;19.86;49.97
9523;BME280;63165;43.016;25.784;2023-04-26T08:34:02;99053.31;;;20.03;49.65
9523;BME280;63165;43.016;25.784;2023-04-26T08:36:29;99044.13;;;20.20;49.11
9523;BME280;63165;43.016;25.784;2023-04-26T08:38:57;99051.03;;;20.23;48.02
9523;BME280;63165;43.016;25.784;2023-04-26T08:41:25;99050.16;;;20.35;47.07
9523;BME280;63165;43.016;25.784;2023-04-26T08:43:54;99037.91;;;20.32;46.66
9523;BME280;63165;43.016;25.784;2023-04-26T08:46:24;99041.22;;;20.60;47.62
9523;BME280;63165;43.016;25.784;2023-04-26T08:48:59;99038.41;;;20.74;48.20
9523;BME280;63165;43.016;25.784;2023-04-26T08:51:33;99053.34;;;21.00;47.46
9523;BME280;63165;43.016;25.784;2023-04-26T08:54:03;99043.00;;;21.19;45.92
9523;BME280;63165;43.016;25.784;2023-04-26T08:56:32;99051.09;;;21.18;45.30
9523;BME280;63165;43.016;25.784;2023-04-26T08:59:00;99045.28;;;21.12;45.28
9523;BME280;63165;43.016;25.784;2023-04-26T09:01:28;99032.59;;;21.16;45.44
9523;BME280;63165;43.016;25.784;2023-04-26T09:03:57;99034.66;;;21.24;45.06
9523;BME280;63165;43.016;25.784;2023-04-26T09:06:26;99043.81;;;21.08;44.97
9523;BME280;63165;43.016;25.784;2023-04-26T09:08:56;99043.47;;;20.78;44.43
9523;BME280;63165;43.016;25.784;2023-04-26T09:11:24;99035.22;;;20.69;44.83
9523;BME280;63165;43.016;25.784;2023-04-26T09:13:52;99020.97;;;20.70;45.04
9523;BME280;63165;43.016;25.784;2023-04-26T09:16:19;99046.09;;;21.02;45.60
9523;BME280;63165;43.016;25.784;2023-04-26T09:18:48;99046.63;;;21.18;44.39
9523;BME280;63165;43.016;25.784;2023-04-26T09:21:17;99038.16;;;21.24;43.68
9523;BME280;63165;43.016;25.784;2023-04-26T09:23:59;99016.41;;;21.19;43.20
9523;BME280;63165;43.016;25.784;2023-04-26T09:26:29;99037.69;;;21.30;43.76
9523;BME280;63165;43.016;25.784;2023-04-26T09:29:13;99029.56;;;21.21;44.01
9523;BME280;63165;43.016;25.784;2023-04-26T09:31:43;99042.16;;;21.30;44.27
9523;BME280;63165;43.016;25.784;2023-04-26T09:34:11;99033.84;;;21.35;42.76
9523;BME280;63165;43.016;25.784;2023-04-26T09:36:49;99028.63;;;21.33;43.24
9523;BME280;63165;43.016;25.784;2023-04-26T09:39:34;99028.22;;;21.26;42.74
9523;BME280;63165;43.016;25.784;2023-04-26T09:42:03;99021.97;;;21.27;43.54
9523;BME280;63165;43.016;25.784;2023-04-26T09:44:30;99012.78;;;21.31;42.77
9523;BME280;63165;43.016;25.784;2023-04-26T09:46:59;99011.88;;;21.55;42.11
9523;BME280;63165;43.016;25.784;2023-04-26T09:49:28;99000.59;;;21.63;42.31
9523;BME280;63165;43.016;25.784;2023-04-26T09:52:00;99025.50;;;21.84;42.35
9523;BME280;63165;43.016;25.784;2023-04-26T09:54:43;99028.16;;;21.96;43.12
9523;BME280;63165;43.016;25.784;2023-04-26T09:57:11;99006.13;;;21.94;42.59
9523;BME280;63165;43.016;25.784;2023-04-26T09:59:44;99028.13;;;22.07;42.09
9523;BME280;63165;43.016;25.784;2023-04-26T10:02:16;99015.31;;;22.01;41.27
9523;BME280;63165;43.016;25.784;2023-04-26T10:04:44;99012.69;;;21.89;40.49
9523;BME280;63165;43.016;25.784;2023-04-26T10:07:14;99004.22;;;21.73;40.78
9523;BME280;63165;43.016;25.784;2023-04-26T10:09:44;99018.84;;;21.67;40.91
9523;BME280;63165;43.016;25.784;2023-04-26T10:12:14;99006.78;;;21.52;40.73
9523;BME280;63165;43.016;25.784;2023-04-26T10:14:42;98992.81;;;21.37;40.57
9523;BME280;63165;43.016;25.784;2023-04-26T10:17:11;99003.63;;;21.47;40.92
9523;BME280;63165;43.016;25.784;2023-04-26T10:19:41;98958.13;;;21.16;40.69
9523;BME280;63165;43.016;25.784;2023-04-26T10:22:15;99004.78;;;21.43;40.72
9523;BME280;63165;43.016;25.784;2023-04-26T10:24:45;99018.75;;;21.58;39.49
9523;BME280;63165;43.016;25.784;2023-04-26T10:27:12;98992.25;;;21.56;39.69
9523;BME280;63165;43.016;25.784;2023-04-26T10:30:05;99001.94;;;21.68;40.70
9523;BME280;63165;43.016;25.784;2023-04-26T10:36:15;98986.44;;;21.74;39.62
9523;BME280;63165;43.016;25.784;2023-04-26T10:39:18;98993.56;;;21.84;39.10
9523;BME280;63165;43.016;25.784;2023-04-26T10:41:47;99011.72;;;21.90;39.14
9523;BME280;63165;43.016;25.784;2023-04-26T10:44:37;99009.66;;;21.94;38.22
9523;BME280;63165;43.016;25.784;2023-04-26T10:47:06;99009.66;;;21.94;37.81
9523;BME280;63165;43.016;25.784;2023-04-26T10:49:52;99003.75;;;21.79;36.62
9523;BME280;63165;43.016;25.784;2023-04-26T10:52:19;98995.88;;;21.66;37.16
9523;BME280;63165;43.016;25.784;2023-04-26T10:54:51;99002.28;;;21.75;37.26
9523;BME280;63165;43.016;25.784;2023-04-26T10:57:22;99001.03;;;22.02;37.83
9523;BME280;63165;43.016;25.784;2023-04-26T11:00:15;99000.16;;;22.13;36.47
9523;BME280;63165;43.016;25.784;2023-04-26T11:02:44;98970.03;;;22.01;36.85
9523;BME280;63165;43.016;25.784;2023-04-26T11:05:35;98972.22;;;21.96;35.63
9523;BME280;63165;43.016;25.784;2023-04-26T11:08:04;99001.28;;;21.99;36.19
9523;BME280;63165;43.016;25.784;2023-04-26T11:10:32;98982.91;;;21.84;36.88
9523;BME280;63165;43.016;25.784;2023-04-26T11:13:02;98997.09;;;21.85;37.31
9523;BME280;63165;43.016;25.784;2023-04-26T11:15:30;98988.38;;;21.71;37.27
9523;BME280;63165;43.016;25.784;2023-04-26T11:18:01;98988.03;;;21.65;37.08
9523;BME280;63165;43.016;25.784;2023-04-26T11:20:29;98982.22;;;21.60;36.70
9523;BME280;63165;43.016;25.784;2023-04-26T11:22:57;98988.09;;;21.41;36.33
9523;BME280;63165;43.016;25.784;2023-04-26T11:25:25;98996.22;;;21.39;36.43
9523;BME280;63165;43.016;25.784;2023-04-26T11:28:01;98997.41;;;21.35;36.45
9523;BME280;63165;43.016;25.784;2023-04-26T11:30:29;99001.78;;;21.36;37.08
9523;BME280;63165;43.016;25.784;2023-04-26T11:32:58;99003.75;;;21.45;37.17
9523;BME280;63165;43.016;25.784;2023-04-26T11:35:25;99004.78;;;21.43;37.17
9523;BME280;63165;43.016;25.784;2023-04-26T11:37:57;99001.81;;;21.59;37.63
9523;BME280;63165;43.016;25.784;2023-04-26T11:40:27;98994.56;;;21.72;38.19
9523;BME280;63165;43.016;25.784;2023-04-26T11:42:58;98996.59;;;21.91;38.09
9523;BME280;63165;43.016;25.784;2023-04-26T11:45:30;99009.28;;;21.99;37.99
9523;BME280;63165;43.016;25.784;2023-04-26T11:47:57;99014.38;;;22.02;36.84
9523;BME280;63165;43.016;25.784;2023-04-26T11:50:26;99010.59;;;22.04;36.31
9523;BME280;63165;43.016;25.784;2023-04-26T11:52:54;99013.75;;;22.09;36.02
9523;BME280;63165;43.016;25.784;2023-04-26T11:55:27;98981.34;;;21.70;36.51
9523;BME280;63165;43.016;25.784;2023-04-26T11:57:55;99012.94;;;21.98;36.24
9523;BME280;63165;43.016;25.784;2023-04-26T12:00:24;98994.53;;;21.83;36.11
9523;BME280;63165;43.016;25.784;2023-04-26T12:02:55;99011.84;;;21.78;36.42
9523;BME280;63165;43.016;25.784;2023-04-26T12:05:25;98967.47;;;21.56;36.98
9523;BME280;63165;43.016;25.784;2023-04-26T12:07:54;98958.72;;;21.42;37.34
9523;BME280;63165;43.016;25.784;2023-04-26T12:10:24;98993.72;;;21.71;37.20
9523;BME280;63165;43.016;25.784;2023-04-26T12:12:55;99014.25;;;21.69;37.68
9523;BME280;63165;43.016;25.784;2023-04-26T12:15:28;99003.28;;;21.63;38.22
9523;BME280;63165;43.016;25.784;2023-04-26T12:17:59;98998.44;;;21.68;38.80
9523;BME280;63165;43.016;25.784;2023-04-26T12:20:30;98998.16;;;21.82;39.09
9523;BME280;63165;43.016;25.784;2023-04-26T12:22:59;99004.69;;;21.89;38.44
9523;BME280;63165;43.016;25.784;2023-04-26T12:25:28;98988.56;;;22.02;38.41
9523;BME280;63165;43.016;25.784;2023-04-26T12:27:56;98993.69;;;21.94;37.93
9523;BME280;63165;43.016;25.784;2023-04-26T12:30:25;99008.78;;;22.05;37.79
9523;BME280;63165;43.016;25.784;2023-04-26T12:32:53;99006.38;;;22.02;37.24
9523;BME280;63165;43.016;25.784;2023-04-26T12:35:23;99005.50;;;22.01;37.31
9523;BME280;63165;43.016;25.784;2023-04-26T12:37:51;99011.81;;;22.00;37.64
9523;BME280;63165;43.016;25.784;2023-04-26T12:40:21;98997.81;;;21.87;37.56
9523;BME280;63165;43.016;25.784;2023-04-26T12:42:49;98980.63;;;21.80;38.23
9523;BME280;63165;43.016;25.784;2023-04-26T12:45:17;99009.91;;;21.91;38.06
9523;BME280;63165;43.016;25.784;2023-04-26T12:47:45;99007.72;;;21.85;38.28
9523;BME280;63165;43.016;25.784;2023-04-26T12:50:14;99006.03;;;21.84;38.53
9523;BME280;63165;43.016;25.784;2023-04-26T12:52:44;99004.34;;;21.83;38.00
9523;BME280;63165;43.016;25.784;2023-04-26T12:55:12;99008.56;;;21.85;38.11
9523;BME280;63165;43.016;25.784;2023-04-26T12:57:41;98998.28;;;21.92;38.00
9523;BME280;63165;43.016;25.784;2023-04-26T13:00:10;99012.31;;;22.05;37.88
9523;BME280;63165;43.016;25.784;2023-04-26T13:02:38;98995.94;;;22.10;38.26
9523;BME280;63165;43.016;25.784;2023-04-26T13:05:06;98988.47;;;21.93;38.19
9523;BME280;63165;43.016;25.784;2023-04-26T13:07:35;98993.09;;;21.90;37.99
9523;BME280;63165;43.016;25.784;2023-04-26T13:10:06;99002.66;;;21.82;37.85